Time;durP1;ratioP1;P1;durP2;ratioP2;P2;SDS_P1;SDS_P2;PMS_P1;PMS_P2;Temp;Humidity;BMP_temperature;BMP_pressure;BME280_temperature;BME280_humidity;BME280_pressure;Samples;Min_cycle;Max_cycle;Signal;HPM_P1;HPM_P2
2023/12/09 06:00:36;;;;;;;8.80;4.63;;;6.50;91.60;;;;;;4854264;23;20108;-80
2023/12/09 06:02:41;;;;;;;11.45;5.20;;;6.40;91.00;;;;;;4103449;28;20125;-75
2023/12/09 06:04:42;;;;;;;12.65;6.60;;;6.40;90.80;;;;;;4103632;28;20130;-76
2023/12/09 06:06:44;;;;;;;9.63;6.53;;;6.40;90.50;;;;;;4103512;28;20436;-79
2023/12/09 06:08:46;;;;;;;11.57;6.40;;;6.40;90.70;;;;;;4103341;28;20043;-79
2023/12/09 06:10:48;;;;;;;11.60;5.45;;;6.40;90.70;;;;;;4103151;28;20047;-78
2023/12/09 06:12:49;;;;;;;10.63;4.57;;;6.40;90.80;;;;;;4092238;28;20453;-77
2023/12/09 06:14:51;;;;;;;9.70;5.20;;;6.20;91.10;;;;;;4086945;29;20047;-77
2023/12/09 06:16:54;;;;;;;11.40;5.13;;;6.30;91.10;;;;;;4086937;29;20056;-75
2023/12/09 06:18:56;;;;;;;9.68;5.15;;;6.30;90.90;;;;;;4086967;29;20532;-78
2023/12/09 06:20:58;;;;;;;10.30;5.70;;;6.30;90.80;;;;;;4092505;29;20138;-78
2023/12/09 06:23:01;;;;;;;11.95;5.78;;;6.30;90.90;;;;;;4102961;28;20051;-78
2023/12/09 06:25:04;;;;;;;12.93;5.53;;;6.30;90.90;;;;;;4102872;28;20043;-78
2023/12/09 06:27:06;;;;;;;13.55;5.38;;;6.30;90.60;;;;;;4102901;28;20055;-78
2023/12/09 06:29:07;;;;;;;11.02;6.78;;;6.20;90.50;;;;;;4097293;28;20492;-79
2023/12/09 06:31:10;;;;;;;13.23;7.15;;;6.10;90.80;;;;;;4102398;28;20098;-77
2023/12/09 06:33:13;;;;;;;11.88;6.97;;;6.10;91.10;;;;;;4102330;28;20516;-78
2023/12/09 06:35:14;;;;;;;11.25;6.85;;;6.10;91.20;;;;;;4102402;28;20094;-74
2023/12/09 06:37:16;;;;;;;13.32;8.23;;;6.10;91.20;;;;;;4102668;28;20500;-76
2023/12/09 06:39:18;;;;;;;15.57;8.82;;;6.20;91.20;;;;;;4090455;28;20056;-77
2023/12/09 06:41:21;;;;;;;14.40;7.57;;;6.10;91.10;;;;;;4086573;29;20441;-78
2023/12/09 06:43:23;;;;;;;10.23;5.63;;;6.10;91.10;;;;;;4086465;29;20048;-76
2023/12/09 06:45:24;;;;;;;9.60;5.43;;;6.10;91.10;;;;;;4098906;28;20053;-77
2023/12/09 06:47:25;;;;;;;11.18;5.75;;;6.20;91.20;;;;;;4097569;28;20039;-77
2023/12/09 06:49:28;;;;;;;11.05;6.28;;;6.10;91.10;;;;;;4095529;28;20168;-76
2023/12/09 06:51:30;;;;;;;8.32;5.20;;;6.10;91.10;;;;;;4109346;28;20543;-77
2023/12/09 06:53:32;;;;;;;11.93;6.22;;;6.10;91.10;;;;;;4110133;28;20043;-77
2023/12/09 06:55:34;;;;;;;10.65;6.03;;;6.10;91.10;;;;;;4113194;28;20047;-78
2023/12/09 06:57:35;;;;;;;9.82;5.95;;;6.20;91.00;;;;;;4118217;28;20444;-76
2023/12/09 06:59:36;;;;;;;11.63;5.80;;;6.10;91.00;;;;;;4116026;28;20043;-77
2023/12/09 07:01:38;;;;;;;13.43;6.75;;;6.20;90.90;;;;;;4113883;28;20253;-76
2023/12/09 07:03:40;;;;;;;10.93;5.82;;;6.20;90.90;;;;;;4116639;28;20082;-78
2023/12/09 07:05:44;;;;;;;13.05;6.38;;;6.20;90.90;;;;;;4114427;28;20484;-76
2023/12/09 07:07:45;;;;;;;11.57;5.53;;;6.20;91.00;;;;;;4110104;28;20039;-78
2023/12/09 07:09:47;;;;;;;10.50;5.10;;;6.20;91.00;;;;;;4111726;28;20106;-75
2023/12/09 07:11:49;;;;;;;11.77;4.95;;;6.20;91.10;;;;;;4114858;28;20538;-80
2023/12/09 07:13:51;;;;;;;8.27;4.85;;;6.20;91.20;;;;;;4116379;28;20089;-79
2023/12/09 07:15:53;;;;;;;10.10;5.47;;;6.20;91.20;;;;;;4117699;28;20547;-76
2023/12/09 07:17:55;;;;;;;11.45;4.93;;;6.10;91.30;;;;;;4117908;28;20051;-78
2023/12/09 07:19:59;;;;;;;12.40;4.70;;;6.10;91.30;;;;;;4110080;28;20043;-79
2023/12/09 07:22:03;;;;;;;10.20;4.72;;;6.20;91.30;;;;;;4111703;28;20459;-79
2023/12/09 07:24:06;;;;;;;12.50;5.43;;;6.20;91.20;;;;;;4118944;28;20050;-78
2023/12/09 07:26:08;;;;;;;11.05;5.32;;;6.10;91.10;;;;;;4115096;28;20051;-78
2023/12/09 07:28:10;;;;;;;10.95;6.47;;;6.10;91.30;;;;;;4117442;28;20074;-77
2023/12/09 07:30:12;;;;;;;13.93;5.07;;;6.10;91.30;;;;;;4118148;28;20500;-78
2023/12/09 07:32:14;;;;;;;9.80;4.90;;;6.10;91.40;;;;;;4115946;28;20048;-78
2023/12/09 07:34:18;;;;;;;10.38;4.90;;;6.10;91.40;;;;;;4117659;28;20047;-77
2023/12/09 07:36:19;;;;;;;16.30;5.47;;;6.10;91.30;;;;;;4117305;28;20050;-79
2023/12/09 07:38:22;;;;;;;11.68;6.10;;;6.10;91.30;;;;;;4109670;28;20109;-77
2023/12/09 07:40:24;;;;;;;8.38;4.78;;;6.00;91.30;;;;;;4117447;28;20176;-79
2023/12/09 07:42:26;;;;;;;9.40;4.97;;;6.00;91.50;;;;;;4117740;28;20054;-77
2023/12/09 07:44:28;;;;;;;9.80;6.00;;;6.10;91.50;;;;;;4116492;28;20138;-77
2023/12/09 07:46:30;;;;;;;10.65;5.20;;;6.10;91.50;;;;;;4112477;28;20046;-78
2023/12/09 07:48:31;;;;;;;9.27;4.88;;;6.10;91.50;;;;;;4102429;29;20051;-76
2023/12/09 07:50:34;;;;;;;8.85;4.80;;;6.20;91.40;;;;;;4109270;28;20046;-77
2023/12/09 07:52:36;;;;;;;8.05;4.38;;;6.20;91.30;;;;;;4103488;28;20144;-78
2023/12/09 07:54:39;;;;;;;10.18;4.65;;;6.20;91.10;;;;;;4116845;28;20051;-77
2023/12/09 07:56:41;;;;;;;10.75;4.85;;;6.30;91.00;;;;;;4113785;28;20163;-77
2023/12/09 07:58:44;;;;;;;10.63;4.95;;;6.30;90.80;;;;;;4118077;28;20043;-77
2023/12/09 08:00:47;;;;;;;10.45;5.10;;;6.30;90.90;;;;;;4107898;28;20051;-77
2023/12/09 08:02:49;;;;;;;9.65;5.10;;;6.30;90.90;;;;;;4104538;28;20054;-75
2023/12/09 08:04:51;;;;;;;11.48;5.97;;;6.40;91.00;;;;;;4102931;28;20047;-75
2023/12/09 08:06:53;;;;;;;8.85;4.55;;;6.40;91.00;;;;;;4112288;28;20181;-77
2023/12/09 08:08:55;;;;;;;10.13;5.50;;;6.40;90.90;;;;;;4106321;28;20043;-77
2023/12/09 08:11:01;;;;;;;12.48;5.88;;;6.50;90.80;;;;;;4101123;28;20043;-78
2023/12/09 08:13:03;;;;;;;14.98;6.70;;;6.50;90.90;;;;;;4100874;28;20051;-78
2023/12/09 08:15:06;;;;;;;9.52;5.15;;;6.30;91.30;;;;;;4103307;28;20049;-78
2023/12/09 08:17:08;;;;;;;11.00;5.85;;;6.30;91.50;;;;;;4117905;28;20086;-78
2023/12/09 08:19:09;;;;;;;10.35;5.32;;;6.30;90.90;;;;;;4116530;28;20484;-79
2023/12/09 08:21:11;;;;;;;10.13;5.85;;;6.40;90.90;;;;;;4109204;28;20094;-76
2023/12/09 08:23:12;;;;;;;11.52;5.65;;;6.40;91.00;;;;;;4114524;28;20101;-76
2023/12/09 08:25:14;;;;;;;11.27;5.10;;;6.50;91.10;;;;;;4116364;28;20051;-79
2023/12/09 08:27:17;;;;;;;8.00;2.92;;;6.50;91.00;;;;;;4115051;28;20046;-77
2023/12/09 08:29:18;;;;;;;8.02;2.75;;;6.40;90.50;;;;;;4101158;28;20062;-77
2023/12/09 08:31:20;;;;;;;8.70;2.30;;;6.40;90.40;;;;;;4100784;28;20533;-79
2023/12/09 08:33:22;;;;;;;7.10;2.08;;;6.40;90.30;;;;;;4113217;28;20051;-75
2023/12/09 08:35:24;;;;;;;6.40;2.20;;;6.40;90.40;;;;;;4103013;28;20051;-76
2023/12/09 08:37:26;;;;;;;6.40;2.30;;;6.40;90.10;;;;;;4101186;29;20454;-77
2023/12/09 08:39:27;;;;;;;14.82;8.85;;;6.50;90.40;;;;;;4108102;28;20101;-78
2023/12/09 08:41:29;;;;;;;7.30;3.85;;;6.50;90.20;;;;;;4108555;28;20544;-78
2023/12/09 08:43:31;;;;;;;12.57;6.88;;;6.50;89.40;;;;;;4114376;28;20070;-77
2023/12/09 08:45:34;;;;;;;5.93;2.55;;;6.60;90.00;;;;;;4112917;28;20488;-77
2023/12/09 08:47:36;;;;;;;5.47;1.95;;;6.60;88.90;;;;;;4113907;28;20416;-77
2023/12/09 08:49:38;;;;;;;6.20;2.17;;;6.60;89.40;;;;;;4109816;28;20054;-79
2023/12/09 08:51:46;;;;;;;7.90;3.00;;;6.70;90.10;;;;;;4115622;28;20109;-80
2023/12/09 08:53:48;;;;;;;8.07;3.70;;;6.70;88.90;;;;;;4115430;28;20129;-80
2023/12/09 08:55:49;;;;;;;7.00;2.95;;;6.70;89.10;;;;;;4116195;28;20559;-80
2023/12/09 08:57:51;;;;;;;6.38;2.30;;;6.80;88.60;;;;;;4100658;28;20064;-78
2023/12/09 08:59:54;;;;;;;6.10;2.30;;;6.80;88.10;;;;;;4101084;28;20058;-79
2023/12/09 09:01:56;;;;;;;6.53;2.97;;;6.90;87.90;;;;;;4116199;28;20059;-79
2023/12/09 09:03:58;;;;;;;4.57;2.05;;;6.90;88.40;;;;;;4115732;28;20381;-79
2023/12/09 09:05:59;;;;;;;4.93;1.80;;;7.00;88.10;;;;;;4112226;28;20090;-78
2023/12/09 09:08:01;;;;;;;7.20;2.70;;;7.10;88.30;;;;;;4113984;28;20133;-79
2023/12/09 09:10:02;;;;;;;7.38;3.10;;;7.10;89.20;;;;;;4115603;28;20455;-78
2023/12/09 09:12:05;;;;;;;5.95;2.25;;;7.10;88.60;;;;;;4114884;28;20105;-78
2023/12/09 09:14:06;;;;;;;5.68;2.30;;;7.20;88.00;;;;;;4111674;28;20063;-81
2023/12/09 09:16:10;;;;;;;4.75;1.65;;;7.10;87.60;;;;;;4115686;28;20198;-81
2023/12/09 09:18:13;;;;;;;4.57;2.00;;;7.10;86.90;;;;;;4108719;28;20043;-78
2023/12/09 09:20:15;;;;;;;3.95;1.80;;;7.10;86.80;;;;;;4108184;28;20062;-79
2023/12/09 09:22:17;;;;;;;5.78;2.20;;;7.10;87.20;;;;;;4111306;28;20448;-79
2023/12/09 09:24:19;;;;;;;5.20;1.80;;;7.10;87.20;;;;;;4116159;28;20051;-79
2023/12/09 09:26:21;;;;;;;3.85;1.60;;;7.10;87.40;;;;;;4107566;28;20409;-77
2023/12/09 09:28:23;;;;;;;3.95;1.65;;;7.10;87.30;;;;;;4114977;28;20400;-77
2023/12/09 09:30:25;;;;;;;13.68;7.82;;;7.20;87.70;;;;;;4115936;28;20051;-79
2023/12/09 09:32:29;;;;;;;6.07;2.83;;;7.10;87.70;;;;;;4115597;28;20473;-79
2023/12/09 09:34:31;;;;;;;6.13;2.85;;;7.20;87.20;;;;;;4114665;28;20054;-78
2023/12/09 09:36:33;;;;;;;6.25;2.58;;;7.10;86.90;;;;;;4106324;28;20473;-78
2023/12/09 09:38:35;;;;;;;4.25;1.88;;;7.20;87.20;;;;;;4101422;28;20466;-78
2023/12/09 09:40:37;;;;;;;3.90;1.80;;;7.30;86.90;;;;;;4113316;28;20453;-78
2023/12/09 09:42:44;;;;;;;4.50;2.00;;;7.40;87.00;;;;;;4110903;28;20050;-77
2023/12/09 09:44:56;;;;;;;4.18;2.03;;;7.40;86.30;;;;;;4104999;28;20047;-80
2023/12/09 09:47:01;;;;;;;5.32;2.20;;;7.40;86.20;;;;;;4112412;28;20129;-77
2023/12/09 09:49:04;;;;;;;4.18;2.10;;;7.50;86.20;;;;;;4104229;28;20054;-77
2023/12/09 09:51:09;;;;;;;4.35;2.25;;;7.40;85.70;;;;;;4102802;28;20484;-80
2023/12/09 09:53:14;;;;;;;3.88;1.90;;;7.40;86.40;;;;;;4098036;28;20140;-76
2023/12/09 09:55:18;;;;;;;4.97;2.17;;;7.40;85.50;;;;;;4103907;28;20472;-80
2023/12/09 09:57:21;;;;;;;5.55;2.60;;;7.40;86.20;;;;;;4111624;28;20062;-77
2023/12/09 09:59:23;;;;;;;5.28;2.15;;;7.40;85.40;;;;;;4111889;28;20070;-77
2023/12/09 10:01:27;;;;;;;4.45;2.03;;;7.50;85.40;;;;;;4109966;28;20055;-80
2023/12/09 10:03:29;;;;;;;4.13;2.22;;;7.60;85.50;;;;;;4105149;28;20055;-78
2023/12/09 10:05:32;;;;;;;4.47;2.15;;;7.60;85.70;;;;;;4113748;28;20690;-78
2023/12/09 10:07:33;;;;;;;4.75;2.25;;;7.60;85.40;;;;;;4104997;28;20047;-77
2023/12/09 10:09:35;;;;;;;6.72;3.00;;;7.70;85.20;;;;;;4117459;28;20050;-79
2023/12/09 10:11:37;;;;;;;5.68;2.65;;;7.70;84.80;;;;;;4117590;28;20047;-77
2023/12/09 10:13:39;;;;;;;4.65;2.30;;;7.80;85.00;;;;;;4118300;28;20047;-78
2023/12/09 10:15:41;;;;;;;4.90;2.13;;;7.90;85.10;;;;;;4118046;28;20133;-78
2023/12/09 10:17:43;;;;;;;5.53;2.60;;;7.90;84.90;;;;;;4118125;28;20551;-78
2023/12/09 10:19:45;;;;;;;5.40;2.15;;;7.90;85.20;;;;;;4118080;28;20055;-79
2023/12/09 10:21:50;;;;;;;5.35;2.15;;;8.00;84.70;;;;;;4118583;28;20138;-79
2023/12/09 10:23:52;;;;;;;4.35;2.22;;;8.00;84.20;;;;;;4118532;28;20122;-78
2023/12/09 10:25:54;;;;;;;4.03;2.05;;;8.10;84.40;;;;;;4118235;28;20459;-78
2023/12/09 10:27:56;;;;;;;4.35;2.00;;;8.10;84.60;;;;;;4118525;28;20082;-79
2023/12/09 10:29:58;;;;;;;3.55;1.88;;;8.10;84.10;;;;;;4118671;28;20055;-80
2023/12/09 10:32:01;;;;;;;4.07;1.77;;;8.20;83.50;;;;;;4118692;28;20050;-79
2023/12/09 10:34:04;;;;;;;3.08;1.70;;;8.20;82.60;;;;;;4102454;28;20082;-79
2023/12/09 10:36:08;;;;;;;5.90;2.95;;;8.20;82.60;;;;;;4102485;29;20047;-80
2023/12/09 10:38:11;;;;;;;5.78;2.72;;;8.20;82.10;;;;;;4106271;28;20079;-79
2023/12/09 10:40:14;;;;;;;4.65;2.30;;;8.20;83.00;;;;;;4118182;28;20097;-80
2023/12/09 10:42:16;;;;;;;5.28;2.60;;;8.20;83.20;;;;;;4118541;28;20129;-81
2023/12/09 10:44:18;;;;;;;4.40;2.00;;;8.20;83.70;;;;;;4108783;28;20094;-78
2023/12/09 10:46:20;;;;;;;3.85;1.92;;;8.40;82.20;;;;;;4102500;29;20048;-78
2023/12/09 10:48:22;;;;;;;3.63;1.70;;;8.40;82.40;;;;;;4102472;29;20051;-77
2023/12/09 10:50:24;;;;;;;3.72;1.70;;;8.40;82.50;;;;;;4102447;29;20048;-77
2023/12/09 10:52:26;;;;;;;3.28;1.60;;;8.40;81.50;;;;;;4102265;29;20055;-77
2023/12/09 10:54:29;;;;;;;3.67;1.67;;;8.50;81.60;;;;;;4102445;29;20051;-80
2023/12/09 10:56:31;;;;;;;3.58;1.60;;;8.60;81.50;;;;;;4102314;29;20055;-78
2023/12/09 10:58:36;;;;;;;4.93;2.10;;;8.60;81.40;;;;;;4102116;29;20102;-79
2023/12/09 11:00:38;;;;;;;3.30;1.70;;;8.60;80.90;;;;;;4102120;28;20098;-79
2023/12/09 11:02:41;;;;;;;3.25;1.40;;;8.60;79.40;;;;;;4102252;29;20477;-80
2023/12/09 11:04:43;;;;;;;3.20;1.42;;;8.60;79.30;;;;;;4102481;28;20043;-80
2023/12/09 11:06:47;;;;;;;3.45;1.60;;;8.70;79.40;;;;;;4102900;28;20067;-77
2023/12/09 11:08:49;;;;;;;3.08;1.58;;;8.70;79.20;;;;;;4111449;28;20050;-78
2023/12/09 11:10:53;;;;;;;5.13;2.85;;;8.80;79.40;;;;;;4118509;28;20050;-80
2023/12/09 11:12:55;;;;;;;7.50;3.83;;;8.80;78.70;;;;;;4103421;28;20098;-79
2023/12/09 11:15:07;;;;;;;4.88;2.45;;;8.80;77.90;;;;;;4101957;29;20556;-78
2023/12/09 11:17:33;;;;;;;4.30;1.63;;;8.80;77.50;;;;;;4101869;29;20047;-81
2023/12/09 11:19:35;;;;;;;4.05;1.80;;;8.90;76.50;;;;;;4101977;28;20066;-77
2023/12/09 11:21:37;;;;;;;3.45;1.50;;;8.90;76.40;;;;;;4101556;29;20047;-79
2023/12/09 11:23:39;;;;;;;2.95;1.23;;;9.00;76.50;;;;;;4101794;29;20059;-79
2023/12/09 11:25:43;;;;;;;3.33;1.50;;;9.00;76.20;;;;;;4101816;29;20434;-79
2023/12/09 11:27:49;;;;;;;3.00;1.30;;;9.00;76.10;;;;;;4103650;28;20051;-80
2023/12/09 11:29:50;;;;;;;5.07;1.80;;;8.90;75.20;;;;;;4117763;28;20050;-79
2023/12/09 11:31:53;;;;;;;3.45;1.40;;;8.90;75.50;;;;;;4117560;28;20464;-80
2023/12/09 11:33:54;;;;;;;4.05;1.60;;;8.90;75.10;;;;;;4117473;28;20141;-77
2023/12/09 11:35:57;;;;;;;3.40;1.63;;;8.90;75.50;;;;;;4117480;28;20437;-78
2023/12/09 11:38:00;;;;;;;3.97;1.92;;;8.90;75.30;;;;;;4117587;28;20043;-81
2023/12/09 11:40:03;;;;;;;3.55;1.65;;;8.90;76.30;;;;;;4110127;28;20058;-80
2023/12/09 11:42:05;;;;;;;15.40;9.43;;;8.80;75.90;;;;;;4101388;28;20094;-77
2023/12/09 11:44:09;;;;;;;7.72;4.05;;;8.80;76.40;;;;;;4104477;28;20381;-80
2023/12/09 11:46:11;;;;;;;13.95;7.60;;;8.80;76.70;;;;;;4117028;28;20047;-79
2023/12/09 11:48:12;;;;;;;5.78;3.08;;;8.80;76.50;;;;;;4115825;28;20551;-80
2023/12/09 11:50:16;;;;;;;3.50;1.70;;;8.70;76.90;;;;;;4115541;28;20046;-78
2023/12/09 11:52:19;;;;;;;3.10;1.40;;;8.80;76.20;;;;;;4114770;28;20074;-79
2023/12/09 11:54:20;;;;;;;3.42;1.50;;;8.70;76.60;;;;;;4116809;28;20168;-81
2023/12/09 11:56:22;;;;;;;3.15;1.50;;;8.70;76.50;;;;;;4117842;28;20098;-78
2023/12/09 11:58:24;;;;;;;3.67;1.42;;;8.60;76.10;;;;;;4109769;28;20058;-79
2023/12/09 12:00:27;;;;;;;3.58;1.60;;;8.60;76.50;;;;;;4116318;28;20047;-79
2023/12/09 12:02:29;;;;;;;3.58;1.50;;;8.60;76.80;;;;;;4115388;28;20050;-78
2023/12/09 12:04:33;;;;;;;4.00;1.73;;;8.60;77.00;;;;;;4114875;28;20109;-80
2023/12/09 12:06:36;;;;;;;3.40;1.60;;;8.50;77.20;;;;;;4115086;28;20046;-78
2023/12/09 12:08:38;;;;;;;3.67;1.70;;;8.60;77.40;;;;;;4112798;28;20047;-78
2023/12/09 12:10:42;;;;;;;4.10;1.90;;;8.70;78.00;;;;;;4113436;28;20504;-77
2023/12/09 12:12:44;;;;;;;4.35;2.08;;;8.70;77.60;;;;;;4114846;28;20078;-79
2023/12/09 12:14:47;;;;;;;4.07;2.00;;;8.80;77.50;;;;;;4106399;28;20047;-79
2023/12/09 12:16:50;;;;;;;6.35;3.17;;;8.90;76.90;;;;;;4099616;28;20047;-78
2023/12/09 12:18:55;;;;;;;3.97;1.98;;;8.90;75.90;;;;;;4110794;28;20051;-80
2023/12/09 12:20:57;;;;;;;6.15;2.65;;;8.90;76.20;;;;;;4114486;28;20122;-81
2023/12/09 12:22:59;;;;;;;5.07;2.50;;;8.80;76.00;;;;;;4113089;28;20101;-78
2023/12/09 12:25:01;;;;;;;4.55;2.30;;;8.90;75.80;;;;;;4111749;28;20109;-79
2023/12/09 12:27:04;;;;;;;4.38;2.03;;;8.90;75.50;;;;;;4098718;28;20098;-77
2023/12/09 12:29:09;;;;;;;4.65;2.20;;;9.00;75.60;;;;;;4098672;28;20394;-78
2023/12/09 12:31:12;;;;;;;8.20;4.82;;;9.10;74.90;;;;;;4104266;28;20050;-78
2023/12/09 12:33:21;;;;;;;6.13;3.13;;;9.10;75.20;;;;;;4113963;28;20081;-78
2023/12/09 12:35:23;;;;;;;9.82;4.93;;;9.10;74.70;;;;;;4113821;28;20106;-76
2023/12/09 12:37:25;;;;;;;5.75;2.75;;;9.10;73.80;;;;;;4114633;28;20051;-77
2023/12/09 12:39:28;;;;;;;4.57;2.33;;;9.20;73.40;;;;;;4113521;28;20055;-79
2023/12/09 12:41:30;;;;;;;4.50;2.33;;;9.00;73.80;;;;;;4112374;28;20047;-78
2023/12/09 12:43:33;;;;;;;4.65;2.20;;;9.10;74.60;;;;;;4114074;28;20572;-77
2023/12/09 12:45:39;;;;;;;4.45;2.08;;;9.10;75.30;;;;;;4114308;28;20502;-77
2023/12/09 12:47:40;;;;;;;4.38;2.30;;;9.10;75.10;;;;;;4114220;28;20055;-79
2023/12/09 12:49:44;;;;;;;5.00;2.38;;;9.20;74.30;;;;;;4113235;28;20055;-78
2023/12/09 12:51:48;;;;;;;5.10;2.28;;;9.40;73.20;;;;;;4112949;28;20073;-79
2023/12/09 12:53:50;;;;;;;5.10;2.20;;;9.70;73.20;;;;;;4114560;28;20105;-78
2023/12/09 12:55:54;;;;;;;4.85;2.40;;;9.90;72.30;;;;;;4114318;28;20074;-78
2023/12/09 12:57:56;;;;;;;4.55;2.45;;;9.80;71.80;;;;;;4113134;28;20101;-79
2023/12/09 12:59:58;;;;;;;4.50;2.30;;;9.80;71.70;;;;;;4112534;28;20051;-76
2023/12/09 13:02:00;;;;;;;4.97;2.47;;;9.90;72.00;;;;;;4114117;28;20106;-78
2023/12/09 13:04:03;;;;;;;5.35;2.70;;;9.80;72.10;;;;;;4113756;28;20051;-78
2023/12/09 13:06:06;;;;;;;4.05;2.15;;;9.70;72.20;;;;;;4114106;28;20054;-77
2023/12/09 13:08:08;;;;;;;4.90;2.28;;;9.70;72.50;;;;;;4105313;28;20827;-78
2023/12/09 13:10:11;;;;;;;4.47;2.30;;;9.60;72.60;;;;;;4097992;28;20051;-76
2023/12/09 13:12:13;;;;;;;5.10;2.40;;;9.60;72.60;;;;;;4098275;28;20482;-78
2023/12/09 13:14:14;;;;;;;5.63;3.10;;;9.60;72.20;;;;;;4102219;28;20062;-78
2023/12/09 13:16:16;;;;;;;5.05;2.53;;;9.50;72.40;;;;;;4113034;28;20429;-77
2023/12/09 13:18:18;;;;;;;6.28;2.92;;;9.70;71.10;;;;;;4114164;28;20050;-79
2023/12/09 13:20:20;;;;;;;5.10;2.38;;;9.60;71.10;;;;;;4113258;28;20047;-78
2023/12/09 13:22:23;;;;;;;4.60;2.47;;;9.50;72.30;;;;;;4114056;28;20058;-78
2023/12/09 13:24:25;;;;;;;4.78;2.33;;;9.40;72.30;;;;;;4113510;28;20059;-77
2023/12/09 13:26:26;;;;;;;5.07;2.80;;;9.30;72.90;;;;;;4114033;28;20050;-79
2023/12/09 13:28:28;;;;;;;4.72;2.67;;;9.30;73.40;;;;;;4113927;28;20046;-78
2023/12/09 13:30:30;;;;;;;8.02;3.60;;;9.30;73.40;;;;;;4113959;28;20432;-76
2023/12/09 13:32:31;;;;;;;6.43;3.03;;;9.30;72.50;;;;;;4110577;28;20047;-75
2023/12/09 13:34:33;;;;;;;4.30;2.30;;;9.30;72.20;;;;;;4112346;28;20129;-75
2023/12/09 13:36:38;;;;;;;5.15;2.60;;;9.20;72.80;;;;;;4110176;28;20047;-78
2023/12/09 13:38:41;;;;;;;4.75;2.50;;;9.10;73.30;;;;;;4115725;28;20077;-78
2023/12/09 13:40:45;;;;;;;4.40;2.30;;;9.10;73.40;;;;;;4109641;28;20051;-76
2023/12/09 13:42:47;;;;;;;4.38;2.17;;;9.00;73.10;;;;;;4100146;28;20074;-76
2023/12/09 13:44:49;;;;;;;4.72;2.50;;;9.00;73.10;;;;;;4102455;28;20051;-77
2023/12/09 13:46:51;;;;;;;5.07;2.58;;;8.90;73.10;;;;;;4101111;28;20082;-77
2023/12/09 13:48:53;;;;;;;4.45;2.42;;;8.90;73.10;;;;;;4104735;28;20420;-79
2023/12/09 13:50:54;;;;;;;5.60;2.63;;;8.90;73.30;;;;;;4110141;28;20051;-79
2023/12/09 13:52:56;;;;;;;5.22;2.60;;;8.90;73.40;;;;;;4116784;28;20055;-76
2023/12/09 13:54:59;;;;;;;5.05;2.60;;;8.80;73.50;;;;;;4112053;28;20058;-76
2023/12/09 13:57:01;;;;;;;5.35;2.55;;;8.80;73.10;;;;;;4116828;28;20367;-76
2023/12/09 13:59:03;;;;;;;5.75;2.80;;;8.70;73.70;;;;;;4116726;28;20508;-78
2023/12/09 14:01:06;;;;;;;5.32;2.80;;;8.70;74.10;;;;;;4116840;28;20066;-79
2023/12/09 14:03:08;;;;;;;6.35;2.90;;;8.60;73.40;;;;;;4109063;28;20130;-79
2023/12/09 14:05:13;;;;;;;5.07;2.92;;;8.60;73.80;;;;;;4116888;28;20126;-79
2023/12/09 14:07:15;;;;;;;5.75;2.88;;;8.60;74.40;;;;;;4116851;28;20105;-78
2023/12/09 14:09:17;;;;;;;5.95;3.00;;;8.60;74.30;;;;;;4114142;28;20074;-77
2023/12/09 14:11:22;;;;;;;5.32;3.00;;;8.50;74.60;;;;;;4116462;28;20047;-77
2023/12/09 14:13:24;;;;;;;6.03;3.30;;;8.50;74.70;;;;;;4116924;28;20534;-76
2023/12/09 14:15:27;;;;;;;6.47;2.75;;;8.60;74.30;;;;;;4116915;28;20050;-77
2023/12/09 14:17:29;;;;;;;6.13;2.92;;;8.60;74.70;;;;;;4116591;28;20432;-78
2023/12/09 14:19:31;;;;;;;6.35;3.22;;;8.60;74.80;;;;;;4113089;28;20122;-77
2023/12/09 14:21:33;;;;;;;6.10;3.22;;;8.50;74.60;;;;;;4114964;28;20475;-76
2023/12/09 14:23:34;;;;;;;5.47;3.00;;;8.40;75.10;;;;;;4113036;28;20063;-77
2023/12/09 14:25:35;;;;;;;5.43;3.00;;;8.60;74.80;;;;;;4105060;28;20106;-77
2023/12/09 14:27:39;;;;;;;6.93;3.75;;;8.60;74.70;;;;;;4112195;28;20051;-79
2023/12/09 14:29:41;;;;;;;6.90;4.03;;;8.60;74.70;;;;;;4101434;28;20055;-78
2023/12/09 14:31:43;;;;;;;6.78;3.50;;;8.60;74.00;;;;;;4100350;28;20099;-77
2023/12/09 14:33:45;;;;;;;5.72;3.40;;;8.60;73.70;;;;;;4115513;28;20050;-78
2023/12/09 14:35:47;;;;;;;7.22;3.88;;;8.60;73.80;;;;;;4114839;28;20046;-77
2023/12/09 14:37:50;;;;;;;6.47;3.03;;;8.70;73.30;;;;;;4105138;28;20047;-79
2023/12/09 14:39:52;;;;;;;5.43;3.13;;;8.70;73.20;;;;;;4109121;28;20055;-78
2023/12/09 14:41:53;;;;;;;5.32;3.10;;;8.50;73.60;;;;;;4113086;28;20468;-77
2023/12/09 14:43:56;;;;;;;6.25;3.65;;;8.50;74.00;;;;;;4111930;28;20047;-77
2023/12/09 14:45:59;;;;;;;6.85;3.10;;;8.50;74.60;;;;;;4099764;29;20059;-79
2023/12/09 14:48:01;;;;;;;7.80;3.25;;;8.50;74.30;;;;;;4109880;28;20080;-79
2023/12/09 14:50:03;;;;;;;6.65;3.22;;;8.50;73.60;;;;;;4115887;28;20051;-78
2023/12/09 14:52:06;;;;;;;5.45;2.90;;;8.50;73.60;;;;;;4110313;28;20097;-79
2023/12/09 14:54:08;;;;;;;6.15;2.95;;;8.50;73.70;;;;;;4102923;28;20055;-77
2023/12/09 14:56:10;;;;;;;5.55;2.88;;;8.60;73.60;;;;;;4112642;28;20051;-79
2023/12/09 14:58:12;;;;;;;5.00;2.67;;;8.60;73.70;;;;;;4109715;28;20101;-79
2023/12/09 15:00:17;;;;;;;5.13;2.60;;;8.60;73.50;;;;;;4115698;28;20059;-77
2023/12/09 15:02:19;;;;;;;5.18;2.40;;;8.50;73.50;;;;;;4115393;28;20062;-76
2023/12/09 15:04:20;;;;;;;4.78;2.60;;;8.40;74.30;;;;;;4115899;28;20050;-76
2023/12/09 15:06:22;;;;;;;5.75;2.70;;;8.40;75.80;;;;;;4115172;28;20051;-75
2023/12/09 15:08:24;;;;;;;5.30;3.05;;;8.40;74.70;;;;;;4113790;28;20472;-78
2023/12/09 15:10:26;;;;;;;4.55;2.50;;;8.40;74.60;;;;;;4115587;28;20486;-78
2023/12/09 15:12:28;;;;;;;4.85;2.70;;;8.40;74.70;;;;;;4115897;28;20055;-75
2023/12/09 15:14:30;;;;;;;6.15;2.78;;;8.40;74.70;;;;;;4116200;28;20053;-77
2023/12/09 15:16:35;;;;;;;4.90;2.42;;;8.40;74.70;;;;;;4115701;28;20799;-77
2023/12/09 15:18:38;;;;;;;5.15;2.70;;;8.40;74.20;;;;;;4114860;28;20085;-78
2023/12/09 15:20:40;;;;;;;5.07;2.72;;;8.40;74.10;;;;;;4115358;28;20439;-77
2023/12/09 15:22:41;;;;;;;5.25;3.05;;;8.30;74.40;;;;;;4115227;28;20534;-76
2023/12/09 15:24:43;;;;;;;4.80;2.85;;;8.30;74.40;;;;;;4115690;28;20062;-79
2023/12/09 15:26:45;;;;;;;4.88;2.65;;;8.30;74.90;;;;;;4114973;28;20047;-77
2023/12/09 15:28:47;;;;;;;6.15;2.85;;;8.30;75.40;;;;;;4115102;28;20054;-78
2023/12/09 15:30:49;;;;;;;5.57;2.80;;;8.30;75.10;;;;;;4113647;28;20994;-76
2023/12/09 15:32:52;;;;;;;4.05;2.58;;;8.30;75.20;;;;;;4119008;28;20050;-78
2023/12/09 15:34:54;;;;;;;5.50;2.78;;;8.30;74.90;;;;;;4131281;28;20062;-77
2023/12/09 15:36:56;;;;;;;5.57;2.58;;;8.30;74.60;;;;;;4127316;28;20062;-77
2023/12/09 15:38:58;;;;;;;5.13;3.10;;;8.20;75.90;;;;;;4115482;28;20121;-79
2023/12/09 15:40:59;;;;;;;5.50;3.00;;;8.20;76.10;;;;;;4115241;28;20051;-78
2023/12/09 15:43:01;;;;;;;5.47;2.90;;;8.30;75.80;;;;;;4103101;28;20051;-79
2023/12/09 15:45:03;;;;;;;5.63;3.10;;;8.20;76.20;;;;;;4110603;28;20451;-77
2023/12/09 15:47:06;;;;;;;5.93;3.03;;;8.20;76.50;;;;;;4113837;28;20061;-77
2023/12/09 15:49:09;;;;;;;6.10;2.97;;;8.20;77.00;;;;;;4115112;28;20047;-78
2023/12/09 15:51:10;;;;;;;5.28;2.65;;;8.20;77.50;;;;;;4113833;28;20051;-79
2023/12/09 15:53:12;;;;;;;4.90;2.67;;;8.20;77.10;;;;;;4102709;28;20109;-78
2023/12/09 15:55:14;;;;;;;6.85;3.10;;;8.20;77.30;;;;;;4114189;28;20112;-78
2023/12/09 15:57:16;;;;;;;5.57;3.00;;;8.20;81.50;;;;;;4115032;28;20050;-76
2023/12/09 15:59:18;;;;;;;6.43;3.10;;;8.30;79.10;;;;;;4114456;28;20082;-76
2023/12/09 16:01:20;;;;;;;5.65;2.90;;;8.20;78.80;;;;;;4113564;28;20109;-74
2023/12/09 16:03:22;;;;;;;5.82;3.00;;;8.20;78.00;;;;;;4099128;29;20105;-75
2023/12/09 16:05:26;;;;;;;4.60;2.50;;;8.20;78.10;;;;;;4109372;28;20919;-75
2023/12/09 16:07:28;;;;;;;4.82;2.30;;;8.10;79.30;;;;;;4109487;28;20112;-77
2023/12/09 16:09:32;;;;;;;4.78;2.30;;;8.10;79.30;;;;;;4106910;28;20053;-76
2023/12/09 16:11:34;;;;;;;4.57;2.20;;;8.10;79.20;;;;;;4104669;28;20051;-77
2023/12/09 16:13:36;;;;;;;4.18;2.03;;;8.10;79.50;;;;;;4104297;28;20046;-77
2023/12/09 16:15:37;;;;;;;4.40;2.10;;;8.10;79.50;;;;;;4113007;28;20059;-74
2023/12/09 16:17:40;;;;;;;3.83;1.73;;;8.10;79.40;;;;;;4109296;28;20488;-77
2023/12/09 16:19:41;;;;;;;3.05;1.50;;;8.10;79.20;;;;;;4098938;28;20083;-76
2023/12/09 16:21:44;;;;;;;2.90;1.52;;;8.10;78.90;;;;;;4101784;28;20416;-75
2023/12/09 16:23:46;;;;;;;5.25;2.55;;;8.00;78.80;;;;;;4114704;28;20069;-77
2023/12/09 16:25:48;;;;;;;7.72;4.13;;;8.00;78.80;;;;;;4111931;28;20776;-75
2023/12/09 16:27:50;;;;;;;3.70;1.85;;;8.00;78.50;;;;;;4104324;28;20042;-75
2023/12/09 16:29:54;;;;;;;2.78;1.33;;;8.10;78.60;;;;;;4114581;28;20082;-80
2023/12/09 16:31:56;;;;;;;3.35;1.40;;;8.00;78.50;;;;;;4116168;28;20047;-75
2023/12/09 16:33:58;;;;;;;2.38;1.20;;;8.10;79.20;;;;;;4114865;28;20074;-77
2023/12/09 16:36:00;;;;;;;3.10;1.20;;;8.10;79.00;;;;;;4114202;28;20133;-75
2023/12/09 16:38:04;;;;;;;2.72;1.38;;;8.10;79.40;;;;;;4103187;28;20054;-75
2023/12/09 16:40:10;;;;;;;3.60;1.35;;;8.00;80.10;;;;;;4114149;28;20133;-77
2023/12/09 16:42:12;;;;;;;3.17;1.00;;;8.10;79.90;;;;;;4114447;28;20057;-77
2023/12/09 16:44:14;;;;;;;2.35;1.17;;;8.10;79.40;;;;;;4114290;28;20113;-76